ZWWW/URC METAR and TAF weather

Enter ICAO airport designator
Station Type Date Time Source
ZWWW METAR 2019/05/26 23:00 UTC NOAA

ZWWW 262300Z 16004MPS CAVOK 18/06 Q1021 NOSIG


Station Type Date Time Source
ZWWW Decoded METAR 2019/05/26 23:00 UTC NOAA

Urum-Qi / Diwopu, China (ZWWW) 43-54N 087-28E
May 26, 2019 - 07:00 PM EDT / 2019.05.26 2300 UTC
Wind: from the SSE (160 degrees) at 9 MPH (8 KT):0
Visibility: greater than 7 mile(s):0
Temperature: 64 F (18 C)
Dew Point: 42 F (6 C)
Relative Humidity: 45%
Pressure (altimeter): 30.15 in. Hg (1021 hPa)
ob: ZWWW 262300Z 16004MPS CAVOK 18/06 Q1021 NOSIG
cycle: 23

Station Type Date Time Source
ZWWW TAF 2019/05/26 18:03 UTC NOAA

TAF ZWWW 261502Z 2618/2718 18004MPS CAVOK TX23/2709Z TN12/2618Z
BECMG 2703/2704 33004G09MPS 9999 BKN040
TEMPO 2711/2713 33010G15MPS FEW030CB BKN040

Example: see airport list